sensor_id;sensor_type;location;lat;lon;timestamp;pressure;altitude;pressure_sealevel;temperature;humidity
63194;BME280;49289;51.670;5.624;2023-02-11T00:01:46;103591.97;;;12.64;57.42
63194;BME280;49289;51.670;5.624;2023-02-11T00:03:33;103577.75;;;13.04;56.03
63194;BME280;49289;51.670;5.624;2023-02-11T00:05:20;103594.15;;;13.16;56.15
63194;BME280;49289;51.670;5.624;2023-02-11T00:07:07;103591.52;;;12.76;57.01
63194;BME280;49289;51.670;5.624;2023-02-11T00:08:54;103583.95;;;12.73;57.19
63194;BME280;49289;51.670;5.624;2023-02-11T00:10:41;103588.15;;;12.33;58.24
63194;BME280;49289;51.670;5.624;2023-02-11T00:12:29;103583.64;;;12.75;57.17
63194;BME280;49289;51.670;5.624;2023-02-11T00:14:17;103583.55;;;12.55;57.53
63194;BME280;49289;51.670;5.624;2023-02-11T00:16:05;103565.30;;;12.67;57.03
63194;BME280;49289;51.670;5.624;2023-02-11T00:17:53;103580.19;;;12.80;56.50
63194;BME280;49289;51.670;5.624;2023-02-11T00:19:41;103560.98;;;12.31;57.59
63194;BME280;49289;51.670;5.624;2023-02-11T00:21:30;103578.35;;;12.64;56.88
63194;BME280;49289;51.670;5.624;2023-02-11T00:23:18;103562.23;;;12.45;57.48
63194;BME280;49289;51.670;5.624;2023-02-11T00:25:05;103556.87;;;12.43;57.37
63194;BME280;49289;51.670;5.624;2023-02-11T00:26:52;103586.84;;;12.57;57.44
63194;BME280;49289;51.670;5.624;2023-02-11T00:28:39;103564.61;;;12.71;56.70
63194;BME280;49289;51.670;5.624;2023-02-11T00:30:26;103583.08;;;12.72;57.16
63194;BME280;49289;51.670;5.624;2023-02-11T00:32:15;103577.02;;;12.73;56.86
63194;BME280;49289;51.670;5.624;2023-02-11T00:34:03;103558.83;;;12.27;57.64
63194;BME280;49289;51.670;5.624;2023-02-11T00:35:51;103556.42;;;12.63;56.82
63194;BME280;49289;51.670;5.624;2023-02-11T00:37:40;103570.81;;;12.74;56.79
63194;BME280;49289;51.670;5.624;2023-02-11T00:39:28;103557.91;;;12.53;57.12
63194;BME280;49289;51.670;5.624;2023-02-11T00:41:16;103557.99;;;12.29;57.90
63194;BME280;49289;51.670;5.624;2023-02-11T00:43:04;103562.70;;;12.31;57.70
63194;BME280;49289;51.670;5.624;2023-02-11T00:44:51;103574.52;;;12.83;56.63
63194;BME280;49289;51.670;5.624;2023-02-11T00:46:38;103579.13;;;12.69;57.06
63194;BME280;49289;51.670;5.624;2023-02-11T00:48:25;103578.58;;;12.74;56.42
63194;BME280;49289;51.670;5.624;2023-02-11T00:50:12;103579.48;;;12.78;56.52
63194;BME280;49289;51.670;5.624;2023-02-11T00:52:00;103576.86;;;12.93;55.80
63194;BME280;49289;51.670;5.624;2023-02-11T00:53:48;103560.33;;;12.58;56.65
63194;BME280;49289;51.670;5.624;2023-02-11T00:55:36;103577.02;;;13.10;55.50
63194;BME280;49289;51.670;5.624;2023-02-11T00:57:24;103559.41;;;12.49;56.43
63194;BME280;49289;51.670;5.624;2023-02-11T00:59:13;103558.25;;;12.77;56.08
63194;BME280;49289;51.670;5.624;2023-02-11T01:01:01;103560.88;;;12.63;56.35
63194;BME280;49289;51.670;5.624;2023-02-11T01:02:48;103575.79;;;12.65;56.42
63194;BME280;49289;51.670;5.624;2023-02-11T01:04:36;103578.92;;;12.65;56.39
63194;BME280;49289;51.670;5.624;2023-02-11T01:06:25;103574.40;;;12.74;56.53
63194;BME280;49289;51.670;5.624;2023-02-11T01:08:13;103582.64;;;12.22;57.40
63194;BME280;49289;51.670;5.624;2023-02-11T01:10:01;103581.84;;;12.55;56.91
63194;BME280;49289;51.670;5.624;2023-02-11T01:11:48;103582.86;;;12.79;56.33
63194;BME280;49289;51.670;5.624;2023-02-11T01:13:35;103579.99;;;12.97;55.89
63194;BME280;49289;51.670;5.624;2023-02-11T01:15:24;103564.05;;;12.81;55.35
63194;BME280;49289;51.670;5.624;2023-02-11T01:17:12;103566.15;;;12.76;55.91
63194;BME280;49289;51.670;5.624;2023-02-11T01:19:00;103592.08;;;12.51;56.78
63194;BME280;49289;51.670;5.624;2023-02-11T01:20:47;103588.30;;;12.76;56.31
63194;BME280;49289;51.670;5.624;2023-02-11T01:22:34;103602.77;;;13.50;54.41
63194;BME280;49289;51.670;5.624;2023-02-11T01:24:21;103597.82;;;12.96;54.98
63194;BME280;49289;51.670;5.624;2023-02-11T01:26:08;103600.00;;;13.18;55.04
63194;BME280;49289;51.670;5.624;2023-02-11T01:27:56;103600.33;;;13.33;54.48
63194;BME280;49289;51.670;5.624;2023-02-11T01:29:44;103576.39;;;12.86;55.07
63194;BME280;49289;51.670;5.624;2023-02-11T01:31:33;103567.77;;;12.83;55.39
63194;BME280;49289;51.670;5.624;2023-02-11T01:33:21;103578.71;;;13.32;54.45
63194;BME280;49289;51.670;5.624;2023-02-11T01:35:09;103575.13;;;12.94;55.40
63194;BME280;49289;51.670;5.624;2023-02-11T01:37:55;103554.95;;;12.99;55.33
63194;BME280;49289;51.670;5.624;2023-02-11T01:39:44;103566.28;;;12.73;55.87
63194;BME280;49289;51.670;5.624;2023-02-11T01:41:31;103557.70;;;12.69;56.31
63194;BME280;49289;51.670;5.624;2023-02-11T01:43:20;103554.75;;;13.06;55.41
63194;BME280;49289;51.670;5.624;2023-02-11T01:45:40;103543.12;;;12.96;55.52
63194;BME280;49289;51.670;5.624;2023-02-11T01:46:56;103534.44;;;12.84;55.66
63194;BME280;49289;51.670;5.624;2023-02-11T01:48:46;103531.74;;;13.07;55.34
63194;BME280;49289;51.670;5.624;2023-02-11T01:50:32;103532.14;;;13.53;53.97
63194;BME280;49289;51.670;5.624;2023-02-11T01:52:20;103514.55;;;13.58;53.61
63194;BME280;49289;51.670;5.624;2023-02-11T01:54:09;103521.91;;;13.42;53.89
63194;BME280;49289;51.670;5.624;2023-02-11T01:55:55;103541.34;;;13.29;54.43
63194;BME280;49289;51.670;5.624;2023-02-11T01:57:44;103528.33;;;12.68;56.02
63194;BME280;49289;51.670;5.624;2023-02-11T01:59:30;103525.56;;;13.32;54.21
63194;BME280;49289;51.670;5.624;2023-02-11T02:01:18;103526.38;;;13.17;54.46
63194;BME280;49289;51.670;5.624;2023-02-11T02:03:07;103522.75;;;13.31;53.96
63194;BME280;49289;51.670;5.624;2023-02-11T02:04:55;103542.05;;;12.89;54.93
63194;BME280;49289;51.670;5.624;2023-02-11T02:06:42;103535.87;;;12.92;55.21
63194;BME280;49289;51.670;5.624;2023-02-11T02:08:30;103545.50;;;12.99;55.14
63194;BME280;49289;51.670;5.624;2023-02-11T02:10:19;103548.27;;;12.99;55.39
63194;BME280;49289;51.670;5.624;2023-02-11T02:12:05;103555.05;;;13.21;54.71
63194;BME280;49289;51.670;5.624;2023-02-11T02:13:53;103544.36;;;13.18;54.49
63194;BME280;49289;51.670;5.624;2023-02-11T02:15:43;103547.99;;;13.31;54.02
63194;BME280;49289;51.670;5.624;2023-02-11T02:17:34;103564.75;;;13.18;54.85
63194;BME280;49289;51.670;5.624;2023-02-11T02:19:29;103544.92;;;12.54;55.86
63194;BME280;49289;51.670;5.624;2023-02-11T02:21:35;103558.63;;;12.85;55.94
63194;BME280;49289;51.670;5.624;2023-02-11T02:23:33;103552.56;;;12.36;57.35
63194;BME280;49289;51.670;5.624;2023-02-11T02:27:43;103553.05;;;12.56;56.34
63194;BME280;49289;51.670;5.624;2023-02-11T02:33:50;103531.34;;;12.62;56.25
63194;BME280;49289;51.670;5.624;2023-02-11T02:35:41;103531.56;;;13.09;54.88
63194;BME280;49289;51.670;5.624;2023-02-11T02:37:29;103525.97;;;12.43;56.27
63194;BME280;49289;51.670;5.624;2023-02-11T02:39:17;103522.84;;;12.37;56.51
63194;BME280;49289;51.670;5.624;2023-02-11T02:41:05;103516.25;;;12.53;56.35
63194;BME280;49289;51.670;5.624;2023-02-11T02:42:51;103535.47;;;11.99;58.12
63194;BME280;49289;51.670;5.624;2023-02-11T02:44:38;103522.58;;;11.77;58.90
63194;BME280;49289;51.670;5.624;2023-02-11T02:46:26;103541.89;;;11.80;58.67
63194;BME280;49289;51.670;5.624;2023-02-11T02:48:28;103534.64;;;12.26;58.26
63194;BME280;49289;51.670;5.624;2023-02-11T02:50:15;103524.30;;;12.12;58.32
63194;BME280;49289;51.670;5.624;2023-02-11T02:52:09;103525.03;;;12.61;57.16
63194;BME280;49289;51.670;5.624;2023-02-11T02:54:00;103547.47;;;12.39;57.72
63194;BME280;49289;51.670;5.624;2023-02-11T02:56:03;103545.25;;;12.53;57.10
63194;BME280;49289;51.670;5.624;2023-02-11T02:57:54;103548.89;;;12.74;56.89
63194;BME280;49289;51.670;5.624;2023-02-11T02:59:47;103559.28;;;12.85;56.37
63194;BME280;49289;51.670;5.624;2023-02-11T03:01:40;103553.09;;;12.97;56.33
63194;BME280;49289;51.670;5.624;2023-02-11T03:03:30;103546.03;;;13.20;55.39
63194;BME280;49289;51.670;5.624;2023-02-11T03:05:16;103531.97;;;12.38;57.37
63194;BME280;49289;51.670;5.624;2023-02-11T03:07:04;103512.12;;;12.55;56.84
63194;BME280;49289;51.670;5.624;2023-02-11T03:08:52;103511.92;;;12.55;56.91
63194;BME280;49289;51.670;5.624;2023-02-11T03:10:39;103537.81;;;12.41;57.44
63194;BME280;49289;51.670;5.624;2023-02-11T03:12:27;103543.69;;;11.91;59.08
63194;BME280;49289;51.670;5.624;2023-02-11T03:14:15;103523.45;;;12.42;57.47
63194;BME280;49289;51.670;5.624;2023-02-11T03:16:03;103515.97;;;12.26;57.69
63194;BME280;49289;51.670;5.624;2023-02-11T03:17:50;103532.32;;;12.79;56.49
63194;BME280;49289;51.670;5.624;2023-02-11T03:19:38;103530.38;;;12.52;57.23
63194;BME280;49289;51.670;5.624;2023-02-11T03:21:26;103518.05;;;12.39;57.13
63194;BME280;49289;51.670;5.624;2023-02-11T03:23:14;103514.16;;;12.64;56.74
63194;BME280;49289;51.670;5.624;2023-02-11T03:25:02;103527.59;;;12.47;57.10
63194;BME280;49289;51.670;5.624;2023-02-11T03:26:51;103512.02;;;12.26;57.10
63194;BME280;49289;51.670;5.624;2023-02-11T03:28:38;103514.10;;;12.37;57.58
63194;BME280;49289;51.670;5.624;2023-02-11T03:30:25;103510.96;;;12.39;57.41
63194;BME280;49289;51.670;5.624;2023-02-11T03:32:14;103517.55;;;12.53;56.84
63194;BME280;49289;51.670;5.624;2023-02-11T03:34:03;103513.48;;;12.46;57.13
63194;BME280;49289;51.670;5.624;2023-02-11T03:35:49;103533.12;;;12.79;56.59
63194;BME280;49289;51.670;5.624;2023-02-11T03:37:38;103516.87;;;12.79;56.04
63194;BME280;49289;51.670;5.624;2023-02-11T03:39:26;103514.28;;;12.54;56.54
63194;BME280;49289;51.670;5.624;2023-02-11T03:41:13;103515.44;;;12.47;57.00
63194;BME280;49289;51.670;5.624;2023-02-11T03:43:02;103536.02;;;12.46;57.48
63194;BME280;49289;51.670;5.624;2023-02-11T03:44:50;103529.63;;;12.60;57.04
63194;BME280;49289;51.670;5.624;2023-02-11T03:46:37;103529.59;;;12.62;57.04
63194;BME280;49289;51.670;5.624;2023-02-11T03:48:26;103510.52;;;12.16;58.15
63194;BME280;49289;51.670;5.624;2023-02-11T03:50:14;103502.70;;;12.33;57.48
63194;BME280;49289;51.670;5.624;2023-02-11T03:52:01;103522.08;;;12.02;58.26
63194;BME280;49289;51.670;5.624;2023-02-11T03:53:48;103520.12;;;12.05;58.90
63194;BME280;49289;51.670;5.624;2023-02-11T03:55:37;103522.38;;;12.14;58.52
63194;BME280;49289;51.670;5.624;2023-02-11T03:57:25;103523.03;;;11.82;59.31
63194;BME280;49289;51.670;5.624;2023-02-11T03:59:12;103504.15;;;11.53;59.76
63194;BME280;49289;51.670;5.624;2023-02-11T04:00:59;103514.48;;;12.10;58.68
63194;BME280;49289;51.670;5.624;2023-02-11T04:02:46;103520.09;;;12.04;58.78
63194;BME280;49289;51.670;5.624;2023-02-11T04:04:33;103519.14;;;11.74;59.80
63194;BME280;49289;51.670;5.624;2023-02-11T04:06:20;103507.42;;;12.19;58.46
63194;BME280;49289;51.670;5.624;2023-02-11T04:08:07;103501.59;;;12.18;58.60
63194;BME280;49289;51.670;5.624;2023-02-11T04:09:54;103495.54;;;11.86;59.37
63194;BME280;49289;51.670;5.624;2023-02-11T04:11:41;103472.25;;;12.01;58.65
63194;BME280;49289;51.670;5.624;2023-02-11T04:13:28;103469.60;;;11.34;60.58
63194;BME280;49289;51.670;5.624;2023-02-11T04:15:16;103470.87;;;11.79;59.84
63194;BME280;49289;51.670;5.624;2023-02-11T04:17:04;103494.44;;;11.55;60.45
63194;BME280;49289;51.670;5.624;2023-02-11T04:18:52;103486.41;;;12.07;58.91
63194;BME280;49289;51.670;5.624;2023-02-11T04:20:40;103476.00;;;10.98;61.80
63194;BME280;49289;51.670;5.624;2023-02-11T04:22:28;103476.52;;;11.86;60.01
63194;BME280;49289;51.670;5.624;2023-02-11T04:24:15;103473.06;;;12.06;58.94
63194;BME280;49289;51.670;5.624;2023-02-11T04:26:03;103501.64;;;12.06;59.21
63194;BME280;49289;51.670;5.624;2023-02-11T04:27:51;103495.78;;;12.42;58.39
63194;BME280;49289;51.670;5.624;2023-02-11T04:29:40;103477.77;;;11.92;59.17
63194;BME280;49289;51.670;5.624;2023-02-11T04:31:28;103479.77;;;11.94;59.23
63194;BME280;49289;51.670;5.624;2023-02-11T04:33:16;103482.58;;;11.74;59.93
63194;BME280;49289;51.670;5.624;2023-02-11T04:35:04;103486.86;;;11.52;60.75
63194;BME280;49289;51.670;5.624;2023-02-11T04:36:52;103506.59;;;11.56;60.97
63194;BME280;49289;51.670;5.624;2023-02-11T04:38:40;103513.82;;;11.82;60.34
63194;BME280;49289;51.670;5.624;2023-02-11T04:40:28;103519.29;;;11.51;61.16
63194;BME280;49289;51.670;5.624;2023-02-11T04:42:15;103523.31;;;11.52;60.83
63194;BME280;49289;51.670;5.624;2023-02-11T04:44:03;103526.68;;;11.72;60.44
63194;BME280;49289;51.670;5.624;2023-02-11T04:45:52;103509.05;;;12.08;59.59
63194;BME280;49289;51.670;5.624;2023-02-11T04:47:40;103530.11;;;12.00;60.20
63194;BME280;49289;51.670;5.624;2023-02-11T04:49:27;103508.84;;;12.74;57.60
63194;BME280;49289;51.670;5.624;2023-02-11T04:51:14;103528.24;;;12.87;57.41
63194;BME280;49289;51.670;5.624;2023-02-11T04:53:01;103528.47;;;12.43;58.50
63194;BME280;49289;51.670;5.624;2023-02-11T04:54:48;103525.98;;;12.51;58.33
63194;BME280;49289;51.670;5.624;2023-02-11T04:56:37;103519.15;;;12.49;58.49
63194;BME280;49289;51.670;5.624;2023-02-11T04:58:25;103516.16;;;12.54;58.46
63194;BME280;49289;51.670;5.624;2023-02-11T05:00:14;103519.17;;;12.39;58.43
63194;BME280;49289;51.670;5.624;2023-02-11T05:02:02;103517.21;;;12.03;60.04
63194;BME280;49289;51.670;5.624;2023-02-11T05:03:50;103516.66;;;12.34;58.78
63194;BME280;49289;51.670;5.624;2023-02-11T05:05:38;103506.00;;;12.55;58.11
63194;BME280;49289;51.670;5.624;2023-02-11T05:07:25;103508.98;;;12.71;57.65
63194;BME280;49289;51.670;5.624;2023-02-11T05:09:13;103531.75;;;12.74;57.75
63194;BME280;49289;51.670;5.624;2023-02-11T05:11:01;103535.89;;;12.77;57.80
63194;BME280;49289;51.670;5.624;2023-02-11T05:12:48;103511.83;;;12.55;57.85
63194;BME280;49289;51.670;5.624;2023-02-11T05:14:35;103525.16;;;12.92;57.20
63194;BME280;49289;51.670;5.624;2023-02-11T05:16:23;103520.98;;;12.61;57.76
63194;BME280;49289;51.670;5.624;2023-02-11T05:18:12;103519.06;;;12.44;58.28
63194;BME280;49289;51.670;5.624;2023-02-11T05:20:00;103522.19;;;11.85;60.14
63194;BME280;49289;51.670;5.624;2023-02-11T05:21:48;103499.28;;;12.05;59.63
63194;BME280;49289;51.670;5.624;2023-02-11T05:23:36;103516.03;;;12.61;58.48
63194;BME280;49289;51.670;5.624;2023-02-11T05:25:23;103500.23;;;12.89;57.23
63194;BME280;49289;51.670;5.624;2023-02-11T05:27:10;103488.38;;;12.43;58.53
63194;BME280;49289;51.670;5.624;2023-02-11T05:28:57;103493.08;;;12.12;59.34
63194;BME280;49289;51.670;5.624;2023-02-11T05:30:44;103509.86;;;12.34;59.36
63194;BME280;49289;51.670;5.624;2023-02-11T05:32:32;103509.90;;;12.50;58.90
63194;BME280;49289;51.670;5.624;2023-02-11T05:34:18;103509.23;;;13.18;57.13
63194;BME280;49289;51.670;5.624;2023-02-11T05:36:11;103494.15;;;13.07;57.16
63194;BME280;49289;51.670;5.624;2023-02-11T05:37:57;103504.45;;;12.46;58.89
63194;BME280;49289;51.670;5.624;2023-02-11T05:39:44;103511.50;;;12.69;58.39
63194;BME280;49289;51.670;5.624;2023-02-11T05:41:31;103512.30;;;12.37;59.22
63194;BME280;49289;51.670;5.624;2023-02-11T05:43:18;103492.20;;;11.93;60.51
63194;BME280;49289;51.670;5.624;2023-02-11T05:45:05;103513.67;;;12.59;59.01
63194;BME280;49289;51.670;5.624;2023-02-11T05:46:53;103507.08;;;12.62;58.34
63194;BME280;49289;51.670;5.624;2023-02-11T05:48:42;103510.98;;;12.81;57.99
63194;BME280;49289;51.670;5.624;2023-02-11T05:50:30;103506.39;;;12.84;58.16
63194;BME280;49289;51.670;5.624;2023-02-11T05:52:18;103512.45;;;13.04;57.31
63194;BME280;49289;51.670;5.624;2023-02-11T05:54:05;103491.98;;;13.03;57.13
63194;BME280;49289;51.670;5.624;2023-02-11T05:55:52;103510.41;;;12.66;58.39
63194;BME280;49289;51.670;5.624;2023-02-11T05:57:39;103492.78;;;12.42;58.37
63194;BME280;49289;51.670;5.624;2023-02-11T05:59:26;103518.65;;;12.99;58.03
63194;BME280;49289;51.670;5.624;2023-02-11T06:01:13;103501.44;;;12.11;60.19
63194;BME280;49289;51.670;5.624;2023-02-11T06:03:01;103485.20;;;12.34;59.35
63194;BME280;49289;51.670;5.624;2023-02-11T06:04:50;103508.98;;;12.58;59.36
63194;BME280;49289;51.670;5.624;2023-02-11T06:06:38;103505.18;;;11.99;60.22
63194;BME280;49289;51.670;5.624;2023-02-11T06:08:26;103508.58;;;12.11;60.71
63194;BME280;49289;51.670;5.624;2023-02-11T06:10:14;103499.00;;;12.17;60.35
63194;BME280;49289;51.670;5.624;2023-02-11T06:12:01;103517.09;;;12.36;59.68
63194;BME280;49289;51.670;5.624;2023-02-11T06:13:48;103504.01;;;12.51;59.49
63194;BME280;49289;51.670;5.624;2023-02-11T06:15:35;103523.55;;;12.42;59.71
63194;BME280;49289;51.670;5.624;2023-02-11T06:17:22;103510.14;;;12.21;60.44
63194;BME280;49289;51.670;5.624;2023-02-11T06:19:09;103526.36;;;12.56;59.44
63194;BME280;49289;51.670;5.624;2023-02-11T06:20:58;103523.91;;;12.50;59.81
63194;BME280;49289;51.670;5.624;2023-02-11T06:22:46;103515.59;;;12.44;59.38
63194;BME280;49289;51.670;5.624;2023-02-11T06:24:34;103526.63;;;12.73;59.02
63194;BME280;49289;51.670;5.624;2023-02-11T06:26:22;103511.53;;;12.52;59.32
63194;BME280;49289;51.670;5.624;2023-02-11T06:28:09;103520.27;;;12.59;59.62
63194;BME280;49289;51.670;5.624;2023-02-11T06:29:56;103524.76;;;13.04;58.24
63194;BME280;49289;51.670;5.624;2023-02-11T06:31:44;103506.97;;;13.02;57.93
63194;BME280;49289;51.670;5.624;2023-02-11T06:33:33;103528.30;;;12.90;58.42
63194;BME280;49289;51.670;5.624;2023-02-11T06:35:21;103528.37;;;12.94;58.56
63194;BME280;49289;51.670;5.624;2023-02-11T06:37:08;103533.09;;;13.06;58.11
63194;BME280;49289;51.670;5.624;2023-02-11T06:38:55;103512.95;;;12.95;58.06
63194;BME280;49289;51.670;5.624;2023-02-11T06:40:45;103531.14;;;12.65;59.23
63194;BME280;49289;51.670;5.624;2023-02-11T06:42:30;103528.27;;;12.69;59.39
63194;BME280;49289;51.670;5.624;2023-02-11T06:44:17;103530.53;;;12.89;58.73
63194;BME280;49289;51.670;5.624;2023-02-11T06:46:04;103512.63;;;13.05;58.16
63194;BME280;49289;51.670;5.624;2023-02-11T06:47:53;103527.10;;;13.30;57.43
63194;BME280;49289;51.670;5.624;2023-02-11T06:49:40;103533.48;;;12.99;58.50
63194;BME280;49289;51.670;5.624;2023-02-11T06:51:29;103514.94;;;13.18;57.63
63194;BME280;49289;51.670;5.624;2023-02-11T06:53:17;103529.70;;;13.48;57.01
63194;BME280;49289;51.670;5.624;2023-02-11T06:55:05;103525.80;;;13.71;56.45
63194;BME280;49289;51.670;5.624;2023-02-11T06:56:52;103529.41;;;13.67;56.45
63194;BME280;49289;51.670;5.624;2023-02-11T06:58:39;103530.14;;;13.26;57.52
63194;BME280;49289;51.670;5.624;2023-02-11T07:00:26;103530.53;;;13.00;58.48
63194;BME280;49289;51.670;5.624;2023-02-11T07:02:15;103530.69;;;13.44;57.42
63194;BME280;49289;51.670;5.624;2023-02-11T07:04:03;103518.00;;;13.57;56.75
63194;BME280;49289;51.670;5.624;2023-02-11T07:05:53;103520.69;;;13.28;57.45
63194;BME280;49289;51.670;5.624;2023-02-11T07:07:40;103521.48;;;12.98;58.54
63194;BME280;49289;51.670;5.624;2023-02-11T07:09:28;103538.30;;;13.02;58.38
63194;BME280;49289;51.670;5.624;2023-02-11T07:11:21;103530.55;;;13.10;58.34
63194;BME280;49289;51.670;5.624;2023-02-11T07:13:07;103527.97;;;13.22;57.98
63194;BME280;49289;51.670;5.624;2023-02-11T07:14:54;103547.18;;;13.42;57.64
63194;BME280;49289;51.670;5.624;2023-02-11T07:16:41;103531.95;;;13.25;57.90
63194;BME280;49289;51.670;5.624;2023-02-11T07:18:28;103523.84;;;12.64;59.69
63194;BME280;49289;51.670;5.624;2023-02-11T07:22:05;103548.11;;;12.78;60.01
63194;BME280;49289;51.670;5.624;2023-02-11T07:23:52;103547.17;;;13.23;58.69
63194;BME280;49289;51.670;5.624;2023-02-11T07:25:39;103557.28;;;13.21;58.69
63194;BME280;49289;51.670;5.624;2023-02-11T07:27:28;103555.77;;;13.13;58.37
63194;BME280;49289;51.670;5.624;2023-02-11T07:29:16;103537.75;;;12.96;58.97
63194;BME280;49289;51.670;5.624;2023-02-11T07:31:04;103519.52;;;13.47;57.40
63194;BME280;49289;51.670;5.624;2023-02-11T07:32:51;103558.98;;;13.11;58.39
63194;BME280;49289;51.670;5.624;2023-02-11T07:34:38;103555.78;;;13.22;58.84
63194;BME280;49289;51.670;5.624;2023-02-11T07:36:25;103537.35;;;13.12;58.85
63194;BME280;49289;51.670;5.624;2023-02-11T07:38:12;103544.18;;;13.29;58.45
63194;BME280;49289;51.670;5.624;2023-02-11T07:39:59;103549.78;;;13.11;58.70
63194;BME280;49289;51.670;5.624;2023-02-11T07:41:46;103564.59;;;13.15;58.77
63194;BME280;49289;51.670;5.624;2023-02-11T07:43:33;103565.67;;;12.96;59.24
63194;BME280;49289;51.670;5.624;2023-02-11T07:45:21;103545.75;;;12.73;60.30
63194;BME280;49289;51.670;5.624;2023-02-11T07:47:09;103570.62;;;13.24;59.14
63194;BME280;49289;51.670;5.624;2023-02-11T07:48:56;103576.54;;;13.46;58.51
63194;BME280;49289;51.670;5.624;2023-02-11T07:50:43;103560.53;;;13.10;58.96
63194;BME280;49289;51.670;5.624;2023-02-11T07:52:30;103564.27;;;13.50;58.10
63194;BME280;49289;51.670;5.624;2023-02-11T07:54:17;103584.77;;;13.06;59.66
63194;BME280;49289;51.670;5.624;2023-02-11T07:56:06;103587.68;;;13.04;59.63
63194;BME280;49289;51.670;5.624;2023-02-11T07:57:53;103579.84;;;12.59;61.09
63194;BME280;49289;51.670;5.624;2023-02-11T07:59:41;103565.50;;;13.01;59.90
63194;BME280;49289;51.670;5.624;2023-02-11T08:01:30;103569.20;;;13.17;59.51
63194;BME280;49289;51.670;5.624;2023-02-11T08:03:18;103567.68;;;13.18;59.39
63194;BME280;49289;51.670;5.624;2023-02-11T08:05:06;103570.38;;;13.10;59.40
63194;BME280;49289;51.670;5.624;2023-02-11T08:06:54;103581.67;;;12.96;60.26
63194;BME280;49289;51.670;5.624;2023-02-11T08:08:41;103582.29;;;13.25;59.65
63194;BME280;49289;51.670;5.624;2023-02-11T08:10:28;103581.27;;;13.26;59.52
63194;BME280;49289;51.670;5.624;2023-02-11T08:12:16;103559.97;;;13.65;58.20
63194;BME280;49289;51.670;5.624;2023-02-11T08:14:03;103563.05;;;13.83;57.29
63194;BME280;49289;51.670;5.624;2023-02-11T08:15:52;103571.19;;;13.31;58.82
63194;BME280;49289;51.670;5.624;2023-02-11T08:17:40;103570.21;;;13.25;59.34
63194;BME280;49289;51.670;5.624;2023-02-11T08:19:28;103568.63;;;13.16;59.71
63194;BME280;49289;51.670;5.624;2023-02-11T08:21:17;103586.41;;;13.01;59.93
63194;BME280;49289;51.670;5.624;2023-02-11T08:23:03;103572.94;;;13.03;60.44
63194;BME280;49289;51.670;5.624;2023-02-11T08:24:51;103571.92;;;13.61;58.57
63194;BME280;49289;51.670;5.624;2023-02-11T08:26:40;103576.02;;;13.33;58.92
63194;BME280;49289;51.670;5.624;2023-02-11T08:28:28;103575.06;;;13.38;58.96
63194;BME280;49289;51.670;5.624;2023-02-11T08:30:17;103579.13;;;13.35;59.37
63194;BME280;49289;51.670;5.624;2023-02-11T08:32:05;103596.22;;;13.22;60.20
63194;BME280;49289;51.670;5.624;2023-02-11T08:33:52;103580.48;;;12.85;60.96
63194;BME280;49289;51.670;5.624;2023-02-11T08:35:39;103599.22;;;13.27;60.11
63194;BME280;49289;51.670;5.624;2023-02-11T08:37:28;103599.31;;;13.47;59.62
63194;BME280;49289;51.670;5.624;2023-02-11T08:39:18;103586.11;;;13.37;59.78
63194;BME280;49289;51.670;5.624;2023-02-11T08:41:05;103600.99;;;13.37;59.86
63194;BME280;49289;51.670;5.624;2023-02-11T08:42:53;103602.93;;;13.49;59.72
63194;BME280;49289;51.670;5.624;2023-02-11T08:44:41;103590.11;;;13.51;59.52
63194;BME280;49289;51.670;5.624;2023-02-11T08:46:28;103578.77;;;13.73;58.83
63194;BME280;49289;51.670;5.624;2023-02-11T08:48:15;103587.05;;;13.38;59.99
63194;BME280;49289;51.670;5.624;2023-02-11T08:50:02;103580.89;;;13.28;59.44
63194;BME280;49289;51.670;5.624;2023-02-11T08:51:49;103585.91;;;13.08;60.71
63194;BME280;49289;51.670;5.624;2023-02-11T08:53:37;103601.66;;;13.80;58.99
63194;BME280;49289;51.670;5.624;2023-02-11T08:55:25;103584.24;;;13.31;60.10
63194;BME280;49289;51.670;5.624;2023-02-11T08:57:13;103586.47;;;12.98;60.94
63194;BME280;49289;51.670;5.624;2023-02-11T08:59:02;103602.25;;;13.92;59.14
63194;BME280;49289;51.670;5.624;2023-02-11T09:00:50;103582.73;;;13.12;60.85
63194;BME280;49289;51.670;5.624;2023-02-11T09:02:38;103606.09;;;13.27;60.86
63194;BME280;49289;51.670;5.624;2023-02-11T09:04:26;103584.92;;;13.09;60.97
63194;BME280;49289;51.670;5.624;2023-02-11T09:06:13;103605.23;;;13.99;59.21
63194;BME280;49289;51.670;5.624;2023-02-11T09:08:00;103611.12;;;14.22;58.12
63194;BME280;49289;51.670;5.624;2023-02-11T09:09:47;103618.77;;;13.93;58.63
63194;BME280;49289;51.670;5.624;2023-02-11T09:11:34;103599.98;;;13.44;60.06
63194;BME280;49289;51.670;5.624;2023-02-11T09:13:21;103613.16;;;13.82;58.95
63194;BME280;49289;51.670;5.624;2023-02-11T09:15:10;103619.67;;;14.19;58.02
63194;BME280;49289;51.670;5.624;2023-02-11T09:16:57;103618.92;;;14.14;58.45
63194;BME280;49289;51.670;5.624;2023-02-11T09:18:44;103612.80;;;14.42;57.68
63194;BME280;49289;51.670;5.624;2023-02-11T09:20:31;103623.06;;;14.04;57.71
63194;BME280;49289;51.670;5.624;2023-02-11T09:22:18;103628.58;;;14.15;58.07
63194;BME280;49289;51.670;5.624;2023-02-11T09:24:07;103631.51;;;14.02;58.59
63194;BME280;49289;51.670;5.624;2023-02-11T09:25:55;103634.81;;;13.98;58.93
63194;BME280;49289;51.670;5.624;2023-02-11T09:27:43;103613.63;;;14.41;57.42
63194;BME280;49289;51.670;5.624;2023-02-11T09:29:30;103631.11;;;14.84;56.63
63194;BME280;49289;51.670;5.624;2023-02-11T09:31:18;103632.89;;;14.21;57.79
63194;BME280;49289;51.670;5.624;2023-02-11T09:33:04;103633.88;;;13.95;58.96
63194;BME280;49289;51.670;5.624;2023-02-11T09:34:52;103614.92;;;14.29;58.08